sensor_id;sensor_type;location;lat;lon;timestamp;pressure;altitude;pressure_sealevel;temperature;humidity
42887;BME280;29032;56.028;92.904;2023-04-09T00:03:48;98658.16;;;-0.60;42.93
42887;BME280;29032;56.028;92.904;2023-04-09T00:09:08;98654.69;;;-0.61;43.89
42887;BME280;29032;56.028;92.904;2023-04-09T00:14:10;98645.13;;;-0.56;44.12
42887;BME280;29032;56.028;92.904;2023-04-09T00:19:13;98641.09;;;-0.46;44.52
42887;BME280;29032;56.028;92.904;2023-04-09T00:24:33;98642.50;;;-0.27;42.93
42887;BME280;29032;56.028;92.904;2023-04-09T00:29:35;98643.25;;;-0.26;45.65
42887;BME280;29032;56.028;92.904;2023-04-09T00:34:39;98641.19;;;-0.17;44.63
42887;BME280;29032;56.028;92.904;2023-04-09T00:45:19;98628.34;;;-0.40;44.47
42887;BME280;29032;56.028;92.904;2023-04-09T00:55:44;98641.88;;;-0.69;43.98
42887;BME280;29032;56.028;92.904;2023-04-09T01:00:46;98645.63;;;-0.67;44.48
42887;BME280;29032;56.028;92.904;2023-04-09T01:06:06;98633.28;;;-0.53;44.81
42887;BME280;29032;56.028;92.904;2023-04-09T01:16:35;98624.47;;;-0.48;43.80
42887;BME280;29032;56.028;92.904;2023-04-09T01:21:41;98620.25;;;-0.49;43.27
42887;BME280;29032;56.028;92.904;2023-04-09T01:27:05;98617.75;;;-0.62;44.09
42887;BME280;29032;56.028;92.904;2023-04-09T01:32:34;98614.28;;;-0.62;44.03
42887;BME280;29032;56.028;92.904;2023-04-09T01:37:38;98609.84;;;-0.60;44.72
42887;BME280;29032;56.028;92.904;2023-04-09T01:48:21;98593.63;;;-0.54;41.50
42887;BME280;29032;56.028;92.904;2023-04-09T01:53:23;98584.66;;;-0.69;44.41
42887;BME280;29032;56.028;92.904;2023-04-09T01:58:44;98578.69;;;-0.44;42.84
42887;BME280;29032;56.028;92.904;2023-04-09T02:04:07;98578.50;;;-0.55;42.78
42887;BME280;29032;56.028;92.904;2023-04-09T02:09:11;98568.44;;;-0.64;43.54
42887;BME280;29032;56.028;92.904;2023-04-09T02:14:15;98554.81;;;-0.64;43.14
42887;BME280;29032;56.028;92.904;2023-04-09T02:19:18;98562.22;;;-0.64;42.78
42887;BME280;29032;56.028;92.904;2023-04-09T02:24:20;98555.25;;;-0.65;43.17
42887;BME280;29032;56.028;92.904;2023-04-09T02:29:22;98550.97;;;-0.57;43.47
42887;BME280;29032;56.028;92.904;2023-04-09T02:34:26;98551.59;;;-0.62;43.48
42887;BME280;29032;56.028;92.904;2023-04-09T02:39:28;98547.16;;;-0.75;44.51
42887;BME280;29032;56.028;92.904;2023-04-09T02:44:48;98553.84;;;-0.61;43.71
42887;BME280;29032;56.028;92.904;2023-04-09T02:49:52;98554.81;;;-0.64;44.27
42887;BME280;29032;56.028;92.904;2023-04-09T02:54:54;98552.88;;;-0.73;44.71
42887;BME280;29032;56.028;92.904;2023-04-09T02:59:56;98544.06;;;-0.67;44.09
42887;BME280;29032;56.028;92.904;2023-04-09T03:04:59;98534.03;;;-0.61;44.66
42887;BME280;29032;56.028;92.904;2023-04-09T03:10:02;98551.63;;;-0.48;43.83
42887;BME280;29032;56.028;92.904;2023-04-09T03:15:05;98537.56;;;-0.31;43.44
42887;BME280;29032;56.028;92.904;2023-04-09T03:20:09;98545.00;;;-0.32;43.80
42887;BME280;29032;56.028;92.904;2023-04-09T03:25:13;98539.75;;;-0.21;43.32
42887;BME280;29032;56.028;92.904;2023-04-09T03:30:15;98537.56;;;-0.17;43.03
42887;BME280;29032;56.028;92.904;2023-04-09T03:35:21;98529.47;;;-0.26;42.76
42887;BME280;29032;56.028;92.904;2023-04-09T03:40:26;98549.44;;;-0.20;43.29
42887;BME280;29032;56.028;92.904;2023-04-09T03:45:28;98526.13;;;-0.21;43.10
42887;BME280;29032;56.028;92.904;2023-04-09T03:56:08;98520.72;;;-0.30;42.82
42887;BME280;29032;56.028;92.904;2023-04-09T04:01:11;98508.06;;;-0.18;42.70
42887;BME280;29032;56.028;92.904;2023-04-09T04:06:32;98515.75;;;-0.17;41.60
42887;BME280;29032;56.028;92.904;2023-04-09T04:12:09;98531.38;;;-0.02;41.73
42887;BME280;29032;56.028;92.904;2023-04-09T04:17:29;98518.50;;;0.13;41.91
42887;BME280;29032;56.028;92.904;2023-04-09T04:22:51;98525.09;;;-0.08;43.44
42887;BME280;29032;56.028;92.904;2023-04-09T04:27:53;98532.88;;;-0.16;44.07
42887;BME280;29032;56.028;92.904;2023-04-09T04:32:59;98516.97;;;-0.18;44.19
42887;BME280;29032;56.028;92.904;2023-04-09T04:43:25;98503.44;;;-0.27;45.16
42887;BME280;29032;56.028;92.904;2023-04-09T04:48:31;98520.84;;;-0.09;45.31
42887;BME280;29032;56.028;92.904;2023-04-09T04:53:35;98519.53;;;0.01;44.37
42887;BME280;29032;56.028;92.904;2023-04-09T04:59:03;98520.28;;;0.16;43.23
42887;BME280;29032;56.028;92.904;2023-04-09T05:04:17;98508.13;;;0.17;43.88
42887;BME280;29032;56.028;92.904;2023-04-09T05:09:39;98513.19;;;0.39;43.82
42887;BME280;29032;56.028;92.904;2023-04-09T05:14:43;98501.13;;;0.46;43.42
42887;BME280;29032;56.028;92.904;2023-04-09T05:20:04;98500.72;;;0.53;42.21
42887;BME280;29032;56.028;92.904;2023-04-09T05:25:26;98486.25;;;0.47;42.89
42887;BME280;29032;56.028;92.904;2023-04-09T05:30:28;98491.81;;;0.37;42.55
42887;BME280;29032;56.028;92.904;2023-04-09T05:35:52;98486.81;;;0.51;42.29
42887;BME280;29032;56.028;92.904;2023-04-09T05:40:55;98479.84;;;0.50;42.48
42887;BME280;29032;56.028;92.904;2023-04-09T05:45:58;98472.88;;;0.69;43.16
42887;BME280;29032;56.028;92.904;2023-04-09T05:51:18;98467.59;;;1.01;41.66
42887;BME280;29032;56.028;92.904;2023-04-09T05:56:22;98462.69;;;1.05;41.88
42887;BME280;29032;56.028;92.904;2023-04-09T06:01:28;98449.69;;;1.20;42.35
42887;BME280;29032;56.028;92.904;2023-04-09T06:06:48;98460.94;;;1.28;41.42
42887;BME280;29032;56.028;92.904;2023-04-09T06:11:52;98444.22;;;1.20;42.03
42887;BME280;29032;56.028;92.904;2023-04-09T06:22:32;98436.22;;;1.42;41.78
42887;BME280;29032;56.028;92.904;2023-04-09T06:27:36;98439.13;;;1.33;42.43
42887;BME280;29032;56.028;92.904;2023-04-09T06:32:56;98431.78;;;1.19;42.12
42887;BME280;29032;56.028;92.904;2023-04-09T06:37:58;98417.16;;;1.02;43.80
42887;BME280;29032;56.028;92.904;2023-04-09T06:43:02;98400.91;;;1.13;43.60
42887;BME280;29032;56.028;92.904;2023-04-09T06:48:12;98400.56;;;1.31;43.59
42887;BME280;29032;56.028;92.904;2023-04-09T06:58:36;98394.34;;;1.88;42.24
42887;BME280;29032;56.028;92.904;2023-04-09T07:03:38;98392.59;;;1.85;42.97
42887;BME280;29032;56.028;92.904;2023-04-09T07:08:58;98381.25;;;1.66;42.62
42887;BME280;29032;56.028;92.904;2023-04-09T07:14:01;98381.38;;;1.52;42.20
42887;BME280;29032;56.028;92.904;2023-04-09T07:19:04;98435.31;;;1.25;44.66
42887;BME280;29032;56.028;92.904;2023-04-09T07:24:06;98492.66;;;0.99;51.59
42887;BME280;29032;56.028;92.904;2023-04-09T07:34:30;98567.13;;;-0.15;57.16
42887;BME280;29032;56.028;92.904;2023-04-09T07:39:50;98569.34;;;-0.91;51.93
42887;BME280;29032;56.028;92.904;2023-04-09T07:44:53;98592.16;;;-1.12;44.58
42887;BME280;29032;56.028;92.904;2023-04-09T07:49:55;98595.78;;;-0.82;40.35
42887;BME280;29032;56.028;92.904;2023-04-09T07:55:08;98611.06;;;-0.37;37.46
42887;BME280;29032;56.028;92.904;2023-04-09T08:00:29;98651.91;;;-0.28;34.71
42887;BME280;29032;56.028;92.904;2023-04-09T08:05:32;98674.81;;;-0.34;32.49
42887;BME280;29032;56.028;92.904;2023-04-09T08:10:34;98690.50;;;-0.77;33.14
42887;BME280;29032;56.028;92.904;2023-04-09T08:20:57;98716.75;;;-0.98;31.98
42887;BME280;29032;56.028;92.904;2023-04-09T08:25:59;98754.13;;;-0.56;32.17
42887;BME280;29032;56.028;92.904;2023-04-09T08:31:21;98719.47;;;-0.32;31.66
42887;BME280;29032;56.028;92.904;2023-04-09T08:36:23;98752.03;;;0.34;31.83
42887;BME280;29032;56.028;92.904;2023-04-09T08:41:26;98772.91;;;0.76;30.34
42887;BME280;29032;56.028;92.904;2023-04-09T08:46:30;98776.84;;;-0.02;28.59
42887;BME280;29032;56.028;92.904;2023-04-09T08:51:32;98775.75;;;0.28;30.54
42887;BME280;29032;56.028;92.904;2023-04-09T08:56:52;98827.66;;;0.58;28.70
42887;BME280;29032;56.028;92.904;2023-04-09T09:07:28;98846.03;;;-0.66;28.74
42887;BME280;29032;56.028;92.904;2023-04-09T09:12:35;98864.69;;;-0.74;29.37
42887;BME280;29032;56.028;92.904;2023-04-09T09:17:53;98885.19;;;-0.36;29.78
42887;BME280;29032;56.028;92.904;2023-04-09T09:28:36;98940.25;;;0.53;27.66
42887;BME280;29032;56.028;92.904;2023-04-09T09:33:40;98929.09;;;0.42;28.48
42887;BME280;29032;56.028;92.904;2023-04-09T09:38:52;98971.56;;;0.67;28.42
42887;BME280;29032;56.028;92.904;2023-04-09T09:43:55;98982.69;;;0.54;28.59
42887;BME280;29032;56.028;92.904;2023-04-09T09:48:58;99006.00;;;-0.30;30.75
42887;BME280;29032;56.028;92.904;2023-04-09T09:54:21;99044.78;;;-0.90;29.32
42887;BME280;29032;56.028;92.904;2023-04-09T09:59:29;99052.53;;;-0.33;30.43
42887;BME280;29032;56.028;92.904;2023-04-09T10:04:34;99058.41;;;1.88;27.02
42887;BME280;29032;56.028;92.904;2023-04-09T10:09:37;99064.09;;;3.54;24.64
42887;BME280;29032;56.028;92.904;2023-04-09T10:14:41;99082.56;;;3.33;23.56
42887;BME280;29032;56.028;92.904;2023-04-09T10:19:55;99097.25;;;1.14;25.38
42887;BME280;29032;56.028;92.904;2023-04-09T10:24:57;99109.94;;;-0.28;27.82
42887;BME280;29032;56.028;92.904;2023-04-09T10:30:00;99179.44;;;-1.00;30.71
42887;BME280;29032;56.028;92.904;2023-04-09T10:35:05;99189.59;;;-1.75;35.02
42887;BME280;29032;56.028;92.904;2023-04-09T10:40:17;99170.03;;;-2.05;31.53
42887;BME280;29032;56.028;92.904;2023-04-09T10:45:20;99183.88;;;-2.47;31.65
42887;BME280;29032;56.028;92.904;2023-04-09T10:50:43;99194.59;;;-2.43;31.98
42887;BME280;29032;56.028;92.904;2023-04-09T10:55:48;99202.22;;;-2.51;32.04
42887;BME280;29032;56.028;92.904;2023-04-09T11:00:50;99222.66;;;-2.59;32.39
42887;BME280;29032;56.028;92.904;2023-04-09T11:06:00;99241.34;;;-2.86;33.35
42887;BME280;29032;56.028;92.904;2023-04-09T11:11:02;99276.28;;;-3.14;33.53
42887;BME280;29032;56.028;92.904;2023-04-09T11:16:04;99263.34;;;-3.23;34.77
42887;BME280;29032;56.028;92.904;2023-04-09T11:21:10;99284.94;;;-3.19;35.28
42887;BME280;29032;56.028;92.904;2023-04-09T11:26:35;99317.63;;;-3.23;35.07
42887;BME280;29032;56.028;92.904;2023-04-09T11:31:55;99313.00;;;-3.09;35.90
42887;BME280;29032;56.028;92.904;2023-04-09T11:36:59;99345.81;;;-3.04;37.14
42887;BME280;29032;56.028;92.904;2023-04-09T11:42:19;99364.41;;;-3.31;39.93
42887;BME280;29032;56.028;92.904;2023-04-09T11:47:22;99382.59;;;-3.77;41.21
42887;BME280;29032;56.028;92.904;2023-04-09T11:52:26;99386.13;;;-4.13;43.49
42887;BME280;29032;56.028;92.904;2023-04-09T11:57:39;99398.03;;;-4.26;45.78
42887;BME280;29032;56.028;92.904;2023-04-09T12:08:23;99434.78;;;-3.57;45.94
42887;BME280;29032;56.028;92.904;2023-04-09T12:13:45;99435.97;;;-3.74;47.20
42887;BME280;29032;56.028;92.904;2023-04-09T12:18:48;99453.78;;;-3.73;46.92
42887;BME280;29032;56.028;92.904;2023-04-09T12:23:52;99469.50;;;-4.00;48.49
42887;BME280;29032;56.028;92.904;2023-04-09T12:29:13;99477.78;;;-4.08;48.78
42887;BME280;29032;56.028;92.904;2023-04-09T12:34:34;99486.25;;;-4.06;47.91
42887;BME280;29032;56.028;92.904;2023-04-09T12:39:56;99488.19;;;-4.06;47.14
42887;BME280;29032;56.028;92.904;2023-04-09T12:44:58;99510.00;;;-3.93;46.12
42887;BME280;29032;56.028;92.904;2023-04-09T12:50:00;99522.75;;;-3.74;44.27
42887;BME280;29032;56.028;92.904;2023-04-09T12:55:07;99533.69;;;-3.61;43.23
42887;BME280;29032;56.028;92.904;2023-04-09T13:00:10;99553.81;;;-3.42;40.98
42887;BME280;29032;56.028;92.904;2023-04-09T13:05:12;99565.34;;;-3.38;40.04
42887;BME280;29032;56.028;92.904;2023-04-09T13:10:16;99573.84;;;-3.36;39.46
42887;BME280;29032;56.028;92.904;2023-04-09T13:15:38;99592.81;;;-3.36;42.13
42887;BME280;29032;56.028;92.904;2023-04-09T13:21:00;99602.16;;;-3.21;39.20
42887;BME280;29032;56.028;92.904;2023-04-09T13:26:06;99619.75;;;-3.09;39.08
42887;BME280;29032;56.028;92.904;2023-04-09T13:31:09;99633.31;;;-2.93;39.19
42887;BME280;29032;56.028;92.904;2023-04-09T13:36:11;99626.09;;;-2.83;38.67
42887;BME280;29032;56.028;92.904;2023-04-09T13:41:14;99642.41;;;-2.83;38.66
42887;BME280;29032;56.028;92.904;2023-04-09T13:46:53;99655.16;;;-2.80;37.72
42887;BME280;29032;56.028;92.904;2023-04-09T13:52:13;99664.59;;;-3.21;35.66
42887;BME280;29032;56.028;92.904;2023-04-09T13:57:35;99668.97;;;-3.63;37.33
42887;BME280;29032;56.028;92.904;2023-04-09T14:02:37;99688.28;;;-3.41;37.17
42887;BME280;29032;56.028;92.904;2023-04-09T14:07:39;99694.13;;;-3.07;36.46
42887;BME280;29032;56.028;92.904;2023-04-09T14:12:43;99709.91;;;-3.18;35.96
42887;BME280;29032;56.028;92.904;2023-04-09T14:17:45;99699.50;;;-3.39;35.74
42887;BME280;29032;56.028;92.904;2023-04-09T14:22:47;99738.44;;;-3.10;35.26
42887;BME280;29032;56.028;92.904;2023-04-09T14:27:51;99737.44;;;-3.00;34.93
42887;BME280;29032;56.028;92.904;2023-04-09T14:32:53;99749.50;;;-3.21;35.55
42887;BME280;29032;56.028;92.904;2023-04-09T14:43:16;99766.09;;;-2.99;35.06
42887;BME280;29032;56.028;92.904;2023-04-09T14:48:19;99767.88;;;-2.72;35.81
42887;BME280;29032;56.028;92.904;2023-04-09T14:53:21;99789.97;;;-2.54;34.57
42887;BME280;29032;56.028;92.904;2023-04-09T14:58:42;99795.75;;;-2.35;34.51
42887;BME280;29032;56.028;92.904;2023-04-09T15:04:03;99807.81;;;-2.20;34.76
42887;BME280;29032;56.028;92.904;2023-04-09T15:09:05;99803.41;;;-2.30;33.45
42887;BME280;29032;56.028;92.904;2023-04-09T15:14:08;99817.00;;;-2.30;33.58
42887;BME280;29032;56.028;92.904;2023-04-09T15:19:10;99818.38;;;-2.39;33.11
42887;BME280;29032;56.028;92.904;2023-04-09T15:24:31;99818.69;;;-2.53;32.85
42887;BME280;29032;56.028;92.904;2023-04-09T15:34:56;99818.59;;;-2.85;32.87
42887;BME280;29032;56.028;92.904;2023-04-09T15:40:16;99840.66;;;-2.83;33.49
42887;BME280;29032;56.028;92.904;2023-04-09T15:45:20;99839.69;;;-2.93;33.17
42887;BME280;29032;56.028;92.904;2023-04-09T15:50:22;99851.81;;;-2.98;32.87
42887;BME280;29032;56.028;92.904;2023-04-09T15:55:24;99869.63;;;-3.16;32.77
42887;BME280;29032;56.028;92.904;2023-04-09T16:00:28;99872.69;;;-3.14;32.96
42887;BME280;29032;56.028;92.904;2023-04-09T16:05:49;99867.81;;;-3.23;32.28
42887;BME280;29032;56.028;92.904;2023-04-09T16:11:09;99879.84;;;-3.24;32.15
42887;BME280;29032;56.028;92.904;2023-04-09T16:16:12;99894.75;;;-3.32;32.44
42887;BME280;29032;56.028;92.904;2023-04-09T16:21:14;99908.00;;;-3.38;32.26
42887;BME280;29032;56.028;92.904;2023-04-09T16:26:35;99915.78;;;-3.40;31.99
42887;BME280;29032;56.028;92.904;2023-04-09T16:31:39;99928.53;;;-3.37;32.06
42887;BME280;29032;56.028;92.904;2023-04-09T16:36:41;99933.78;;;-3.50;32.47
42887;BME280;29032;56.028;92.904;2023-04-09T16:41:45;99929.88;;;-3.49;32.47
42887;BME280;29032;56.028;92.904;2023-04-09T16:46:49;99942.28;;;-3.47;32.35
42887;BME280;29032;56.028;92.904;2023-04-09T16:57:11;99952.84;;;-3.30;31.97
42887;BME280;29032;56.028;92.904;2023-04-09T17:02:15;99960.09;;;-3.23;31.70
42887;BME280;29032;56.028;92.904;2023-04-09T17:07:17;99971.25;;;-3.17;31.57
42887;BME280;29032;56.028;92.904;2023-04-09T17:12:19;99974.75;;;-3.17;32.27
42887;BME280;29032;56.028;92.904;2023-04-09T17:17:41;99982.03;;;-3.14;32.05
42887;BME280;29032;56.028;92.904;2023-04-09T17:22:43;99996.44;;;-3.17;31.57
42887;BME280;29032;56.028;92.904;2023-04-09T17:27:45;99997.44;;;-3.07;31.08
42887;BME280;29032;56.028;92.904;2023-04-09T17:32:50;100005.53;;;-3.04;31.73
42887;BME280;29032;56.028;92.904;2023-04-09T17:43:12;100015.34;;;-3.10;31.18
42887;BME280;29032;56.028;92.904;2023-04-09T17:48:16;100013.13;;;-3.18;31.09
42887;BME280;29032;56.028;92.904;2023-04-09T17:53:18;100023.94;;;-3.15;31.17
42887;BME280;29032;56.028;92.904;2023-04-09T17:58:20;100016.03;;;-3.06;31.27
42887;BME280;29032;56.028;92.904;2023-04-09T18:03:24;100024.91;;;-3.02;30.86
42887;BME280;29032;56.028;92.904;2023-04-09T18:08:26;100034.66;;;-3.04;31.11
42887;BME280;29032;56.028;92.904;2023-04-09T18:13:28;100033.97;;;-3.12;31.01
42887;BME280;29032;56.028;92.904;2023-04-09T18:18:50;100039.88;;;-2.94;31.17
42887;BME280;29032;56.028;92.904;2023-04-09T18:24:10;100039.28;;;-3.05;30.56
42887;BME280;29032;56.028;92.904;2023-04-09T18:29:13;100034.66;;;-3.04;31.33
42887;BME280;29032;56.028;92.904;2023-04-09T18:34:35;100042.59;;;-2.94;30.80
42887;BME280;29032;56.028;92.904;2023-04-09T18:39:55;100044.00;;;-2.85;31.14
42887;BME280;29032;56.028;92.904;2023-04-09T18:45:16;100048.25;;;-2.84;31.14
42887;BME280;29032;56.028;92.904;2023-04-09T18:50:19;100048.91;;;-2.77;30.97
42887;BME280;29032;56.028;92.904;2023-04-09T18:55:39;100044.22;;;-2.76;31.50
42887;BME280;29032;56.028;92.904;2023-04-09T19:00:41;100046.31;;;-2.84;30.73
42887;BME280;29032;56.028;92.904;2023-04-09T19:05:45;100048.50;;;-2.75;31.14
42887;BME280;29032;56.028;92.904;2023-04-09T19:10:47;100048.44;;;-2.72;30.95
42887;BME280;29032;56.028;92.904;2023-04-09T19:15:49;100052.53;;;-2.63;30.95
42887;BME280;29032;56.028;92.904;2023-04-09T19:20:52;100054.78;;;-2.58;31.15
42887;BME280;29032;56.028;92.904;2023-04-09T19:25:55;100052.50;;;-2.60;30.88
42887;BME280;29032;56.028;92.904;2023-04-09T19:30:57;100051.66;;;-2.57;30.61
42887;BME280;29032;56.028;92.904;2023-04-09T19:36:00;100050.00;;;-2.51;30.88
42887;BME280;29032;56.028;92.904;2023-04-09T19:41:03;100055.00;;;-2.49;30.92
42887;BME280;29032;56.028;92.904;2023-04-09T19:46:05;100054.53;;;-2.44;31.05
42887;BME280;29032;56.028;92.904;2023-04-09T19:51:14;100062.91;;;-2.35;30.63
42887;BME280;29032;56.028;92.904;2023-04-09T19:56:17;100058.31;;;-2.38;30.23
42887;BME280;29032;56.028;92.904;2023-04-09T20:01:19;100065.22;;;-2.33;30.65
42887;BME280;29032;56.028;92.904;2023-04-09T20:06:41;100050.16;;;-2.18;30.99
42887;BME280;29032;56.028;92.904;2023-04-09T20:11:43;100042.50;;;-2.23;30.04
42887;BME280;29032;56.028;92.904;2023-04-09T20:16:45;100052.72;;;-2.31;30.54
42887;BME280;29032;56.028;92.904;2023-04-09T20:21:48;100059.25;;;-2.48;30.22
42887;BME280;29032;56.028;92.904;2023-04-09T20:27:08;100053.13;;;-2.52;31.20
42887;BME280;29032;56.028;92.904;2023-04-09T20:32:10;100061.47;;;-2.63;30.57
42887;BME280;29032;56.028;92.904;2023-04-09T20:37:32;100063.38;;;-2.60;30.59
42887;BME280;29032;56.028;92.904;2023-04-09T20:42:34;100050.38;;;-2.72;31.01
42887;BME280;29032;56.028;92.904;2023-04-09T20:47:36;100046.47;;;-2.71;30.62
42887;BME280;29032;56.028;92.904;2023-04-09T20:52:58;100050.19;;;-2.61;31.20
42887;BME280;29032;56.028;92.904;2023-04-09T20:58:00;100050.81;;;-2.74;31.71
42887;BME280;29032;56.028;92.904;2023-04-09T21:03:02;100054.88;;;-2.62;31.44
42887;BME280;29032;56.028;92.904;2023-04-09T21:08:06;100061.63;;;-2.50;31.61
42887;BME280;29032;56.028;92.904;2023-04-09T21:13:08;100066.16;;;-2.44;31.76
42887;BME280;29032;56.028;92.904;2023-04-09T21:18:10;100067.69;;;-2.43;31.39
42887;BME280;29032;56.028;92.904;2023-04-09T21:23:14;100067.44;;;-2.28;31.34
42887;BME280;29032;56.028;92.904;2023-04-09T21:28:16;100055.75;;;-2.25;31.25
42887;BME280;29032;56.028;92.904;2023-04-09T21:33:18;100046.41;;;-2.24;31.16
42887;BME280;29032;56.028;92.904;2023-04-09T21:38:21;100048.19;;;-2.38;31.23
42887;BME280;29032;56.028;92.904;2023-04-09T21:43:24;100039.75;;;-2.43;31.52
42887;BME280;29032;56.028;92.904;2023-04-09T21:48:44;100037.91;;;-2.26;31.56
42887;BME280;29032;56.028;92.904;2023-04-09T21:53:48;100044.72;;;-2.18;31.37
42887;BME280;29032;56.028;92.904;2023-04-09T21:58:50;100044.16;;;-2.09;31.12
42887;BME280;29032;56.028;92.904;2023-04-09T22:03:52;100048.34;;;-2.05;31.17
42887;BME280;29032;56.028;92.904;2023-04-09T22:08:56;100032.03;;;-2.05;30.92
42887;BME280;29032;56.028;92.904;2023-04-09T22:19:18;100034.09;;;-1.93;30.68
42887;BME280;29032;56.028;92.904;2023-04-09T22:24:22;100033.41;;;-1.97;31.28
42887;BME280;29032;56.028;92.904;2023-04-09T22:29:24;100025.03;;;-2.06;31.15
42887;BME280;29032;56.028;92.904;2023-04-09T22:34:26;100023.66;;;-2.14;30.85
42887;BME280;29032;56.028;92.904;2023-04-09T22:39:30;100029.78;;;-2.10;31.32
42887;BME280;29032;56.028;92.904;2023-04-09T22:44:50;100026.94;;;-2.03;31.16
42887;BME280;29032;56.028;92.904;2023-04-09T22:49:53;100022.53;;;-1.97;31.28
42887;BME280;29032;56.028;92.904;2023-04-09T22:54:56;100017.91;;;-2.00;31.22
42887;BME280;29032;56.028;92.904;2023-04-09T22:59:58;100010.13;;;-1.98;31.23
42887;BME280;29032;56.028;92.904;2023-04-09T23:05:00;100005.78;;;-1.95;31.03
42887;BME280;29032;56.028;92.904;2023-04-09T23:10:06;100019.81;;;-1.97;31.90
42887;BME280;29032;56.028;92.904;2023-04-09T23:15:09;100006.88;;;-1.93;30.93
42887;BME280;29032;56.028;92.904;2023-04-09T23:20:14;100013.53;;;-2.14;31.27
42887;BME280;29032;56.028;92.904;2023-04-09T23:25:19;100002.69;;;-2.33;31.96
42887;BME280;29032;56.028;92.904;2023-04-09T23:35:41;99993.63;;;-2.27;31.55
42887;BME280;29032;56.028;92.904;2023-04-09T23:40:45;99996.84;;;-2.32;31.83
42887;BME280;29032;56.028;92.904;2023-04-09T23:51:09;99984.22;;;-2.62;32.38
42887;BME280;29032;56.028;92.904;2023-04-09T23:56:18;99981.66;;;-2.69;32.07
